Time;durP1;ratioP1;P1;durP2;ratioP2;P2;SDS_P1;SDS_P2;PMS_P1;PMS_P2;Temp;Humidity;BMP_temperature;BMP_pressure;BME280_temperature;BME280_humidity;BME280_pressure;Samples;Min_cycle;Max_cycle;Signal;HPM_P1;HPM_P2
2022/03/04 00:00:55;;;;;;;50.57;33.57;;;;;;;;;;5055687;28;20045;-67
2022/03/04 00:03:21;;;;;;;55.00;33.77;;;;;;;;;;5055410;28;20043;-69
2022/03/04 00:05:47;;;;;;;51.73;34.87;;;;;;;;;;5055676;28;20036;-66
2022/03/04 00:08:13;;;;;;;53.70;35.57;;;;;;;;;;5055492;28;20116;-66
2022/03/04 00:10:39;;;;;;;46.70;33.23;;;;;;;;;;5055886;28;20104;-67
2022/03/04 00:13:06;;;;;;;50.90;33.70;;;;;;;;;;5055540;28;20053;-66
2022/03/04 00:15:32;;;;;;;53.07;34.40;;;;;;;;;;5055534;28;20041;-66
2022/03/04 00:17:58;;;;;;;52.43;34.13;;;;;;;;;;5055857;28;20426;-66
2022/03/04 00:20:25;;;;;;;50.73;34.27;;;;;;;;;;5055325;28;20040;-66
2022/03/04 00:22:51;;;;;;;52.00;35.03;;;;;;;;;;5055511;28;20057;-66
2022/03/04 00:25:18;;;;;;;50.10;33.10;;;;;;;;;;5055240;28;20033;-66
2022/03/04 00:27:44;;;;;;;51.47;32.27;;;;;;;;;;5055139;28;20068;-66
2022/03/04 00:30:11;;;;;;;45.57;33.40;;;;;;;;;;5055530;28;20033;-66
2022/03/04 00:32:37;;;;;;;47.03;31.83;;;;;;;;;;5054634;28;20516;-67
2022/03/04 00:35:04;;;;;;;46.90;32.80;;;;;;;;;;5055113;28;20033;-67
2022/03/04 00:37:30;;;;;;;46.83;32.30;;;;;;;;;;5055083;28;20036;-66
2022/03/04 00:39:56;;;;;;;46.20;31.43;;;;;;;;;;5055312;28;20482;-67
2022/03/04 00:42:22;;;;;;;43.90;30.60;;;;;;;;;;5055331;28;20400;-76
2022/03/04 00:44:48;;;;;;;43.17;29.23;;;;;;;;;;5054812;28;20087;-72
2022/03/04 00:47:14;;;;;;;37.70;27.50;;;;;;;;;;5055012;28;20033;-76
2022/03/04 00:49:40;;;;;;;41.47;27.47;;;;;;;;;;5055126;28;20036;-66
2022/03/04 00:52:06;;;;;;;41.50;25.63;;;;;;;;;;5054759;28;20033;-66
2022/03/04 00:54:32;;;;;;;36.77;23.90;;;;;;;;;;5054805;28;20094;-76
2022/03/04 00:56:59;;;;;;;35.67;24.40;;;;;;;;;;5054860;28;20033;-67
2022/03/04 00:59:25;;;;;;;36.10;24.53;;;;;;;;;;5054680;28;20452;-67
2022/03/04 01:01:51;;;;;;;38.63;26.13;;;;;;;;;;5054693;28;20043;-67
2022/03/04 01:04:17;;;;;;;41.03;25.97;;;;;;;;;;5054633;28;20033;-67
2022/03/04 01:06:43;;;;;;;37.83;26.77;;;;;;;;;;5054239;28;20033;-67
2022/03/04 01:09:09;;;;;;;39.80;24.97;;;;;;;;;;5054259;28;20029;-66
2022/03/04 01:11:37;;;;;;;39.50;24.77;;;;;;;;;;5054586;28;20055;-66
2022/03/04 01:14:03;;;;;;;36.03;25.60;;;;;;;;;;5054379;28;20052;-66
2022/03/04 01:16:29;;;;;;;45.10;27.43;;;;;;;;;;5054439;28;20029;-66
2022/03/04 01:18:55;;;;;;;40.37;27.13;;;;;;;;;;5053981;28;20497;-66
2022/03/04 01:21:21;;;;;;;39.30;26.27;;;;;;;;;;5054440;28;20397;-66
2022/03/04 01:23:47;;;;;;;37.07;25.43;;;;;;;;;;5054261;28;20055;-66
2022/03/04 01:26:13;;;;;;;36.60;25.47;;;;;;;;;;5054276;28;20037;-66
2022/03/04 01:28:40;;;;;;;37.00;24.43;;;;;;;;;;5054287;28;20037;-66
2022/03/04 01:31:09;;;;;;;32.93;22.77;;;;;;;;;;5054113;28;20436;-66
2022/03/04 01:33:35;;;;;;;29.23;20.53;;;;;;;;;;5054096;28;20045;-66
2022/03/04 01:36:01;;;;;;;33.10;20.27;;;;;;;;;;5054203;28;20056;-66
2022/03/04 01:38:28;;;;;;;30.60;20.67;;;;;;;;;;5054047;28;20419;-66
2022/03/04 01:40:54;;;;;;;27.03;18.93;;;;;;;;;;5054031;28;20493;-66
2022/03/04 01:43:20;;;;;;;28.80;18.23;;;;;;;;;;5054260;28;20486;-67
2022/03/04 01:45:46;;;;;;;24.67;16.73;;;;;;;;;;5053959;28;20051;-66
2022/03/04 01:48:13;;;;;;;25.23;16.40;;;;;;;;;;5053728;28;20033;-67
2022/03/04 01:50:39;;;;;;;22.90;14.93;;;;;;;;;;5053643;28;20029;-76
2022/03/04 01:53:05;;;;;;;24.10;14.50;;;;;;;;;;5053509;28;20037;-66
2022/03/04 01:55:32;;;;;;;20.47;12.57;;;;;;;;;;5053986;28;20083;-67
2022/03/04 01:57:58;;;;;;;19.90;12.90;;;;;;;;;;5052075;28;20116;-67
2022/03/04 02:00:24;;;;;;;20.17;12.80;;;;;;;;;;5050713;28;20099;-66
2022/03/04 02:02:50;;;;;;;23.07;14.00;;;;;;;;;;5050889;28;20087;-66
2022/03/04 02:05:17;;;;;;;20.23;13.27;;;;;;;;;;5052349;28;20029;-67
2022/03/04 02:07:44;;;;;;;20.67;14.07;;;;;;;;;;5053552;28;20481;-66
2022/03/04 02:10:11;;;;;;;20.93;14.00;;;;;;;;;;5053016;28;20029;-66
2022/03/04 02:12:37;;;;;;;23.47;13.60;;;;;;;;;;5052769;28;20095;-67
2022/03/04 02:15:04;;;;;;;20.73;12.77;;;;;;;;;;5053258;28;20516;-66
2022/03/04 02:17:31;;;;;;;22.97;13.37;;;;;;;;;;5053320;28;20029;-67
2022/03/04 02:19:57;;;;;;;21.53;13.30;;;;;;;;;;5053468;28;20383;-66
2022/03/04 02:22:24;;;;;;;22.93;14.27;;;;;;;;;;5053022;28;20044;-67
2022/03/04 02:24:50;;;;;;;18.37;12.50;;;;;;;;;;5053049;28;20033;-67
2022/03/04 02:27:16;;;;;;;21.77;13.60;;;;;;;;;;5052876;28;20040;-66
2022/03/04 02:29:42;;;;;;;21.47;13.70;;;;;;;;;;5052792;28;20041;-66
2022/03/04 02:32:09;;;;;;;19.37;12.97;;;;;;;;;;5052983;28;20159;-66
2022/03/04 02:34:35;;;;;;;21.20;13.63;;;;;;;;;;5052927;28;20043;-66
2022/03/04 02:37:01;;;;;;;16.63;12.37;;;;;;;;;;5052526;28;20025;-66
2022/03/04 02:39:27;;;;;;;21.00;12.27;;;;;;;;;;5052840;28;20123;-66
2022/03/04 02:41:53;;;;;;;20.73;13.03;;;;;;;;;;5052765;28;20536;-66
2022/03/04 02:44:19;;;;;;;17.90;12.40;;;;;;;;;;5052768;28;20147;-67
2022/03/04 02:46:45;;;;;;;23.97;12.90;;;;;;;;;;5052773;28;20033;-66
2022/03/04 02:49:12;;;;;;;20.10;13.70;;;;;;;;;;5052990;28;20115;-67
2022/03/04 02:51:38;;;;;;;18.47;12.17;;;;;;;;;;5052926;28;20037;-66
2022/03/04 02:54:05;;;;;;;18.50;12.30;;;;;;;;;;5052606;28;20033;-67
2022/03/04 02:56:31;;;;;;;19.20;12.47;;;;;;;;;;5053035;28;20551;-67
2022/03/04 02:58:57;;;;;;;18.90;12.60;;;;;;;;;;5052565;28;20033;-67
2022/03/04 03:01:24;;;;;;;19.33;12.27;;;;;;;;;;5052731;28;20119;-67
2022/03/04 03:03:50;;;;;;;22.80;13.00;;;;;;;;;;5052898;28;20036;-66
2022/03/04 03:06:17;;;;;;;21.27;12.57;;;;;;;;;;5052836;28;20087;-67
2022/03/04 03:08:43;;;;;;;18.37;11.60;;;;;;;;;;5052806;28;20025;-66
2022/03/04 03:11:09;;;;;;;20.33;12.77;;;;;;;;;;5052651;28;20473;-67
2022/03/04 03:13:35;;;;;;;20.57;12.67;;;;;;;;;;5052485;28;20535;-66
2022/03/04 03:16:02;;;;;;;21.63;11.73;;;;;;;;;;5052830;28;20033;-66
2022/03/04 03:18:28;;;;;;;18.10;12.10;;;;;;;;;;5052598;28;20037;-66
2022/03/04 03:20:54;;;;;;;19.73;12.40;;;;;;;;;;5052570;28;20044;-75
2022/03/04 03:23:20;;;;;;;18.87;12.13;;;;;;;;;;5052258;28;20041;-66
2022/03/04 03:25:46;;;;;;;19.43;11.60;;;;;;;;;;5052652;28;20029;-67
2022/03/04 03:28:12;;;;;;;21.40;12.13;;;;;;;;;;5052476;28;20067;-66
2022/03/04 03:30:38;;;;;;;19.97;12.70;;;;;;;;;;5052533;28;20041;-66
2022/03/04 03:33:04;;;;;;;21.13;13.03;;;;;;;;;;5052613;28;20037;-67
2022/03/04 03:35:30;;;;;;;18.70;12.07;;;;;;;;;;5052820;28;20029;-67
2022/03/04 03:37:56;;;;;;;18.97;12.17;;;;;;;;;;5052432;28;20059;-66
2022/03/04 03:40:23;;;;;;;21.33;12.40;;;;;;;;;;5052388;28;20478;-66
2022/03/04 03:42:49;;;;;;;16.83;12.17;;;;;;;;;;5052509;28;20079;-67
2022/03/04 03:45:15;;;;;;;20.40;13.40;;;;;;;;;;5052559;28;20041;-67
2022/03/04 03:47:42;;;;;;;19.50;13.47;;;;;;;;;;5052506;28;20029;-66
2022/03/04 03:50:10;;;;;;;20.37;13.50;;;;;;;;;;5052390;28;20025;-66
2022/03/04 03:52:36;;;;;;;20.03;13.40;;;;;;;;;;5052189;28;20124;-66
2022/03/04 03:55:03;;;;;;;21.80;13.13;;;;;;;;;;5052201;28;20104;-66
2022/03/04 03:57:29;;;;;;;21.57;13.10;;;;;;;;;;5052161;28;20508;-66
2022/03/04 03:59:55;;;;;;;20.03;12.80;;;;;;;;;;5052417;28;20393;-67
2022/03/04 04:02:21;;;;;;;20.60;13.70;;;;;;;;;;5052136;28;20040;-66
2022/03/04 04:04:47;;;;;;;20.77;13.80;;;;;;;;;;5052337;28;20048;-66
2022/03/04 04:07:13;;;;;;;18.57;12.97;;;;;;;;;;5053600;28;20043;-66
2022/03/04 04:09:39;;;;;;;22.53;14.10;;;;;;;;;;5055753;28;20393;-66
2022/03/04 04:12:06;;;;;;;19.67;12.77;;;;;;;;;;5055492;28;20401;-66
2022/03/04 04:14:32;;;;;;;22.53;13.50;;;;;;;;;;5055608;28;20060;-68
2022/03/04 04:16:58;;;;;;;20.90;13.17;;;;;;;;;;5055681;28;20037;-76
2022/03/04 04:19:24;;;;;;;21.50;13.13;;;;;;;;;;5055359;28;20032;-67
2022/03/04 04:21:51;;;;;;;22.63;13.00;;;;;;;;;;5055115;28;20080;-66
2022/03/04 04:24:17;;;;;;;18.67;12.00;;;;;;;;;;5055152;28;20091;-67
2022/03/04 04:26:43;;;;;;;19.60;12.87;;;;;;;;;;5055623;28;20086;-66
2022/03/04 04:29:10;;;;;;;19.37;12.73;;;;;;;;;;5055782;28;20044;-66
2022/03/04 04:31:36;;;;;;;22.67;13.20;;;;;;;;;;5055484;28;20063;-67
2022/03/04 04:34:03;;;;;;;18.50;12.90;;;;;;;;;;5055607;28;20041;-67
2022/03/04 04:36:29;;;;;;;23.60;12.83;;;;;;;;;;5054995;28;20041;-66
2022/03/04 04:38:56;;;;;;;21.57;13.63;;;;;;;;;;5055302;28;20385;-66
2022/03/04 04:41:22;;;;;;;20.70;12.77;;;;;;;;;;5055270;28;20041;-66
2022/03/04 04:43:48;;;;;;;20.70;13.33;;;;;;;;;;5055281;28;20033;-66
2022/03/04 04:46:14;;;;;;;21.87;12.87;;;;;;;;;;5055134;28;20041;-66
2022/03/04 04:48:40;;;;;;;22.53;13.87;;;;;;;;;;5055064;28;20033;-66
2022/03/04 04:51:07;;;;;;;18.63;13.23;;;;;;;;;;5055013;28;20446;-66
2022/03/04 04:53:33;;;;;;;25.73;13.67;;;;;;;;;;5054850;28;20072;-66
2022/03/04 04:55:59;;;;;;;26.10;12.33;;;;;;;;;;5055080;28;20043;-66
2022/03/04 04:58:25;;;;;;;24.73;12.80;;;;;;;;;;5054700;28;20030;-66
2022/03/04 05:00:54;;;;;;;20.43;13.03;;;;;;;;;;5054832;28;20064;-66
2022/03/04 05:03:23;;;;;;;18.83;12.70;;;;;;;;;;5054903;28;20025;-66
2022/03/04 05:05:50;;;;;;;20.80;12.73;;;;;;;;;;5055039;28;20039;-67
2022/03/04 05:08:16;;;;;;;17.93;12.40;;;;;;;;;;5054757;28;20029;-75
2022/03/04 05:10:42;;;;;;;19.73;12.40;;;;;;;;;;5054388;28;20474;-67
2022/03/04 05:13:10;;;;;;;19.30;12.47;;;;;;;;;;5054692;28;20045;-67
2022/03/04 05:15:36;;;;;;;25.13;12.83;;;;;;;;;;5054885;28;20064;-67
2022/03/04 05:18:02;;;;;;;19.77;12.73;;;;;;;;;;5054030;28;20048;-67
2022/03/04 05:20:28;;;;;;;22.00;13.03;;;;;;;;;;5053994;28;20044;-67
2022/03/04 05:22:54;;;;;;;21.17;11.97;;;;;;;;;;5053984;28;20065;-67
2022/03/04 05:25:20;;;;;;;25.37;13.83;;;;;;;;;;5054351;28;20401;-67
2022/03/04 05:27:46;;;;;;;25.37;14.37;;;;;;;;;;5054039;28;20036;-75
2022/03/04 05:30:13;;;;;;;28.40;14.40;;;;;;;;;;5054351;28;20029;-70
2022/03/04 05:32:39;;;;;;;22.87;13.50;;;;;;;;;;5053743;28;20432;-67
2022/03/04 05:35:06;;;;;;;27.43;13.47;;;;;;;;;;5053597;28;20041;-67
2022/03/04 05:37:32;;;;;;;21.17;14.27;;;;;;;;;;5054411;28;20374;-67
2022/03/04 05:39:59;;;;;;;25.40;13.30;;;;;;;;;;5053789;28;20044;-67
2022/03/04 05:42:25;;;;;;;19.77;12.63;;;;;;;;;;5053940;28;20075;-67
2022/03/04 05:44:51;;;;;;;20.27;12.57;;;;;;;;;;5053162;28;20063;-67
2022/03/04 05:47:17;;;;;;;20.87;12.27;;;;;;;;;;5053164;28;20037;-67
2022/03/04 05:49:43;;;;;;;25.23;12.43;;;;;;;;;;5053691;28;20025;-67
2022/03/04 05:52:10;;;;;;;30.13;14.30;;;;;;;;;;5053912;28;20064;-67
2022/03/04 05:54:36;;;;;;;24.60;12.60;;;;;;;;;;5053745;28;20532;-65
2022/03/04 05:57:02;;;;;;;20.97;12.20;;;;;;;;;;5053556;28;20037;-65
2022/03/04 05:59:28;;;;;;;22.70;12.47;;;;;;;;;;5053655;28;20056;-64
2022/03/04 06:01:54;;;;;;;26.47;11.83;;;;;;;;;;5053335;28;20033;-64
2022/03/04 06:04:20;;;;;;;19.53;11.93;;;;;;;;;;5053321;28;20036;-64
2022/03/04 06:06:46;;;;;;;27.47;12.53;;;;;;;;;;5053237;28;20033;-65
2022/03/04 06:09:12;;;;;;;20.70;11.77;;;;;;;;;;5052702;28;20025;-65
2022/03/04 06:11:38;;;;;;;26.30;12.73;;;;;;;;;;5053663;28;20039;-64
2022/03/04 06:14:04;;;;;;;22.70;12.10;;;;;;;;;;5053256;28;20040;-64
2022/03/04 06:16:30;;;;;;;32.60;12.67;;;;;;;;;;5053323;28;20037;-65
2022/03/04 06:18:57;;;;;;;32.37;12.90;;;;;;;;;;5053060;28;20410;-64
2022/03/04 06:21:23;;;;;;;20.53;12.33;;;;;;;;;;5053062;28;20041;-65
2022/03/04 06:23:49;;;;;;;22.80;12.40;;;;;;;;;;5053041;28;20029;-65
2022/03/04 06:26:15;;;;;;;23.80;13.17;;;;;;;;;;5053030;28;20112;-64
2022/03/04 06:28:41;;;;;;;19.03;12.07;;;;;;;;;;5052940;28;20040;-75
2022/03/04 06:31:07;;;;;;;25.60;12.40;;;;;;;;;;5052554;28;20036;-65
2022/03/04 06:33:35;;;;;;;19.40;11.57;;;;;;;;;;5052302;28;20036;-66
2022/03/04 06:36:09;;;;;;;24.47;11.70;;;;;;;;;;5052965;28;20033;-65
2022/03/04 06:38:36;;;;;;;25.77;12.43;;;;;;;;;;5053203;28;20025;-65
2022/03/04 06:41:03;;;;;;;18.93;11.93;;;;;;;;;;5051501;28;20037;-74
2022/03/04 06:43:30;;;;;;;30.73;12.13;;;;;;;;;;5051172;28;20053;-65
2022/03/04 06:45:56;;;;;;;21.23;12.10;;;;;;;;;;5051777;28;20383;-65
2022/03/04 06:48:22;;;;;;;31.93;12.63;;;;;;;;;;5051469;28;20029;-68
2022/03/04 06:50:51;;;;;;;25.80;12.87;;;;;;;;;;5052608;28;20390;-65
2022/03/04 06:53:18;;;;;;;27.57;13.73;;;;;;;;;;5052213;28;20025;-66
2022/03/04 06:55:44;;;;;;;32.63;14.70;;;;;;;;;;5051980;28;20370;-75
2022/03/04 06:58:10;;;;;;;25.93;14.30;;;;;;;;;;5052108;28;20033;-75
2022/03/04 07:00:38;;;;;;;34.23;15.30;;;;;;;;;;5052195;28;20036;-66
2022/03/04 07:03:04;;;;;;;29.23;12.93;;;;;;;;;;5051272;28;20419;-72
2022/03/04 07:05:30;;;;;;;23.17;13.73;;;;;;;;;;5049739;28;20382;-83
2022/03/04 07:07:56;;;;;;;23.13;14.33;;;;;;;;;;5049535;28;20088;-65
2022/03/04 07:10:22;;;;;;;29.53;15.33;;;;;;;;;;5051317;28;20041;-83
2022/03/04 07:12:49;;;;;;;31.43;14.93;;;;;;;;;;5052320;28;20513;-66
2022/03/04 07:15:15;;;;;;;26.30;14.43;;;;;;;;;;5052346;28;20118;-81
2022/03/04 07:17:41;;;;;;;24.23;14.07;;;;;;;;;;5052478;28;20036;-63
2022/03/04 07:20:08;;;;;;;24.13;14.53;;;;;;;;;;5052506;28;20043;-65
2022/03/04 07:22:35;;;;;;;25.53;14.87;;;;;;;;;;5052100;28;20052;-65
2022/03/04 07:25:05;;;;;;;26.07;14.70;;;;;;;;;;5052035;28;20477;-64
2022/03/04 07:27:33;;;;;;;24.83;14.63;;;;;;;;;;5052191;28;20054;-65
2022/03/04 07:29:59;;;;;;;27.20;15.20;;;;;;;;;;5050170;28;20515;-65
2022/03/04 07:32:26;;;;;;;25.70;14.60;;;;;;;;;;5049800;28;20538;-65
2022/03/04 07:34:52;;;;;;;23.83;14.27;;;;;;;;;;5050899;28;20116;-64
2022/03/04 07:37:18;;;;;;;22.80;14.10;;;;;;;;;;5052290;28;20052;-64
2022/03/04 07:39:44;;;;;;;25.73;14.13;;;;;;;;;;5052377;28;20025;-64
2022/03/04 07:42:10;;;;;;;22.30;12.60;;;;;;;;;;5055463;28;20041;-64
2022/03/04 07:44:36;;;;;;;20.83;12.33;;;;;;;;;;5055980;28;20486;-64
2022/03/04 07:47:02;;;;;;;23.30;13.20;;;;;;;;;;5054699;28;20116;-69
2022/03/04 07:49:28;;;;;;;21.77;12.50;;;;;;;;;;5055151;28;20125;-65
2022/03/04 07:51:54;;;;;;;24.07;13.03;;;;;;;;;;5055846;28;20033;-64
2022/03/04 07:54:20;;;;;;;19.23;12.73;;;;;;;;;;5056010;28;20486;-64
2022/03/04 07:56:46;;;;;;;23.60;12.50;;;;;;;;;;5055689;28;20482;-65
2022/03/04 07:59:12;;;;;;;21.87;13.53;;;;;;;;;;5054617;28;20413;-64
2022/03/04 08:01:38;;;;;;;23.27;13.23;;;;;;;;;;5054851;28;20071;-64
2022/03/04 08:04:05;;;;;;;19.30;13.33;;;;;;;;;;5055180;28;20064;-77
2022/03/04 08:06:32;;;;;;;22.03;13.67;;;;;;;;;;5055716;28;20036;-63
2022/03/04 08:08:58;;;;;;;19.50;12.63;;;;;;;;;;5055419;28;20040;-64
2022/03/04 08:11:24;;;;;;;25.80;12.57;;;;;;;;;;5055319;28;20114;-64
2022/03/04 08:13:50;;;;;;;19.63;12.40;;;;;;;;;;5054853;28;20049;-63
2022/03/04 08:16:16;;;;;;;18.70;11.73;;;;;;;;;;5054537;28;20055;-64
2022/03/04 08:18:42;;;;;;;22.83;12.77;;;;;;;;;;5055227;28;20926;-64
2022/03/04 08:21:08;;;;;;;21.90;12.90;;;;;;;;;;5054459;28;20037;-64
2022/03/04 08:23:34;;;;;;;22.60;13.20;;;;;;;;;;5054800;28;20045;-64
2022/03/04 08:26:03;;;;;;;21.57;13.17;;;;;;;;;;5054435;28;20090;-64
2022/03/04 08:28:30;;;;;;;20.90;12.10;;;;;;;;;;5054409;28;20033;-75
2022/03/04 08:30:57;;;;;;;20.37;12.40;;;;;;;;;;5055028;28;20040;-65
2022/03/04 08:33:24;;;;;;;20.77;12.77;;;;;;;;;;5055083;28;20430;-64
2022/03/04 08:35:50;;;;;;;19.47;11.43;;;;;;;;;;5055197;28;20135;-77
2022/03/04 08:38:16;;;;;;;22.93;12.73;;;;;;;;;;5054829;28;20040;-76
2022/03/04 08:40:42;;;;;;;23.33;12.63;;;;;;;;;;5054859;28;20086;-64
2022/03/04 08:43:09;;;;;;;24.80;12.87;;;;;;;;;;5055127;28;20120;-65
2022/03/04 08:45:35;;;;;;;17.17;12.00;;;;;;;;;;5054424;28;20033;-64
2022/03/04 08:48:06;;;;;;;20.53;12.07;;;;;;;;;;5053870;28;20094;-64
2022/03/04 08:50:32;;;;;;;24.17;12.60;;;;;;;;;;5054682;28;20049;-64
2022/03/04 08:53:01;;;;;;;18.43;12.60;;;;;;;;;;5053518;28;20124;-64
2022/03/04 08:55:27;;;;;;;18.13;11.93;;;;;;;;;;5054302;28;20033;-64
2022/03/04 08:57:53;;;;;;;18.80;12.60;;;;;;;;;;5054100;28;20039;-65
2022/03/04 09:00:19;;;;;;;29.80;12.43;;;;;;;;;;5053823;28;20033;-66
2022/03/04 09:02:46;;;;;;;18.40;12.07;;;;;;;;;;5051381;28;20056;-65
2022/03/04 09:05:12;;;;;;;48.50;13.87;;;;;;;;;;5052320;28;20029;-66
2022/03/04 09:07:38;;;;;;;24.27;12.03;;;;;;;;;;5053710;28;20033;-64
2022/03/04 09:10:05;;;;;;;21.47;12.47;;;;;;;;;;5054237;28;20041;-64
2022/03/04 09:12:31;;;;;;;19.90;13.60;;;;;;;;;;5054332;28;20041;-65
2022/03/04 09:14:57;;;;;;;18.23;12.80;;;;;;;;;;5054426;28;20470;-64
2022/03/04 09:17:23;;;;;;;24.87;13.10;;;;;;;;;;5054332;28;20033;-65
2022/03/04 09:19:49;;;;;;;19.00;13.10;;;;;;;;;;5054068;28;20044;-75
2022/03/04 09:22:15;;;;;;;22.13;13.97;;;;;;;;;;5054083;28;20079;-67
2022/03/04 09:24:41;;;;;;;21.53;13.80;;;;;;;;;;5054471;28;20086;-65
2022/03/04 09:27:07;;;;;;;28.10;14.17;;;;;;;;;;5053206;28;20037;-66
2022/03/04 09:29:33;;;;;;;23.70;13.73;;;;;;;;;;5053720;28;20385;-70
2022/03/04 09:32:00;;;;;;;21.30;13.17;;;;;;;;;;5053863;28;20171;-67
2022/03/04 09:34:26;;;;;;;23.30;13.83;;;;;;;;;;5053125;28;20037;-65
2022/03/04 09:36:52;;;;;;;22.80;14.17;;;;;;;;;;5053655;28;20033;-66
2022/03/04 09:39:18;;;;;;;21.17;12.97;;;;;;;;;;5054121;28;20048;-78
2022/03/04 09:41:45;;;;;;;17.57;11.17;;;;;;;;;;5053926;28;20489;-65
2022/03/04 09:44:12;;;;;;;21.63;12.27;;;;;;;;;;5053973;28;20485;-65
2022/03/04 09:46:40;;;;;;;19.47;12.47;;;;;;;;;;5053754;28;20128;-65
2022/03/04 09:49:07;;;;;;;18.13;12.10;;;;;;;;;;5053727;28;20544;-77
2022/03/04 09:51:33;;;;;;;17.90;11.30;;;;;;;;;;5053952;28;20041;-66
2022/03/04 09:53:59;;;;;;;20.00;12.37;;;;;;;;;;5052643;28;20075;-67
2022/03/04 09:56:25;;;;;;;20.20;12.53;;;;;;;;;;5053195;28;20398;-65
2022/03/04 09:58:52;;;;;;;18.43;12.27;;;;;;;;;;5053140;28;20103;-64
2022/03/04 10:01:18;;;;;;;19.17;12.37;;;;;;;;;;5053231;28;20051;-75
2022/03/04 10:03:45;;;;;;;22.50;12.83;;;;;;;;;;5053025;28;20037;-65
2022/03/04 10:06:11;;;;;;;21.93;13.60;;;;;;;;;;5051346;28;20091;-75
2022/03/04 10:08:38;;;;;;;18.73;13.30;;;;;;;;;;5051976;28;20112;-62
2022/03/04 10:11:04;;;;;;;18.97;13.00;;;;;;;;;;5051416;28;20068;-63
2022/03/04 10:13:49;;;;;;;20.70;13.27;;;;;;;;;;5052409;28;20052;-63
2022/03/04 10:16:25;;;;;;;22.23;13.73;;;;;;;;;;5052265;28;20028;-63
2022/03/04 10:19:09;;;;;;;23.90;13.10;;;;;;;;;;5052776;28;20128;-68
2022/03/04 10:21:55;;;;;;;27.20;13.07;;;;;;;;;;5051832;28;20055;-64
2022/03/04 10:24:24;;;;;;;22.63;13.03;;;;;;;;;;5051772;28;20047;-63
2022/03/04 10:27:01;;;;;;;21.43;13.57;;;;;;;;;;5051929;28;20033;-63
2022/03/04 10:29:28;;;;;;;29.07;13.73;;;;;;;;;;5052953;28;20041;-75
2022/03/04 10:32:06;;;;;;;21.50;14.60;;;;;;;;;;5052585;28;20033;-65
2022/03/04 10:34:45;;;;;;;20.03;12.90;;;;;;;;;;5051218;28;20112;-62
2022/03/04 10:37:11;;;;;;;22.07;13.37;;;;;;;;;;5053032;28;20120;-63
2022/03/04 10:39:37;;;;;;;23.20;13.70;;;;;;;;;;5052754;28;20490;-73
2022/03/04 10:42:03;;;;;;;21.50;13.15;;;;;;;;;;5052801;28;20052;-63
2022/03/04 10:44:29;;;;;;;21.23;14.60;;;;;;;;;;5052830;28;20033;-63
2022/03/04 10:46:56;;;;;;;18.45;13.23;;;;;;;;;;5052766;28;20041;-64
2022/03/04 10:49:27;;;;;;;18.47;12.60;;;;;;;;;;5052884;28;20111;-72
2022/03/04 10:52:05;;;;;;;19.07;12.40;;;;;;;;;;5052615;28;20037;-65
2022/03/04 10:54:31;;;;;;;20.70;13.27;;;;;;;;;;5052978;28;20091;-74
2022/03/04 10:56:57;;;;;;;21.15;12.48;;;;;;;;;;5053036;28;20098;-63
2022/03/04 10:59:24;;;;;;;21.23;12.93;;;;;;;;;;5052827;28;20029;-63
2022/03/04 11:01:51;;;;;;;22.30;13.27;;;;;;;;;;5052759;28;20048;-75
2022/03/04 11:04:20;;;;;;;19.27;12.82;;;;;;;;;;5052386;28;20091;-63
2022/03/04 11:06:47;;;;;;;21.17;13.90;;;;;;;;;;5052738;28;20033;-75
2022/03/04 11:09:14;;;;;;;18.25;13.38;;;;;;;;;;5052420;28;20103;-63
2022/03/04 11:11:43;;;;;;;18.88;13.52;;;;;;;;;;5052878;28;20033;-74
2022/03/04 11:14:10;;;;;;;17.15;12.48;;;;;;;;;;5052422;28;20538;-63
2022/03/04 11:16:36;;;;;;;19.23;12.35;;;;;;;;;;5054987;28;20458;-70
2022/03/04 11:19:02;;;;;;;20.15;11.90;;;;;;;;;;5056665;28;20397;-63
2022/03/04 11:21:28;;;;;;;21.23;11.73;;;;;;;;;;5056601;28;20071;-63
2022/03/04 11:23:54;;;;;;;23.73;12.45;;;;;;;;;;5056325;28;20462;-63
2022/03/04 11:26:21;;;;;;;14.32;10.05;;;;;;;;;;5056408;28;20470;-63
2022/03/04 11:28:51;;;;;;;16.88;11.93;;;;;;;;;;5056051;28;20048;-69
2022/03/04 11:31:21;;;;;;;15.43;11.02;;;;;;;;;;5055381;28;20424;-63
2022/03/04 11:33:54;;;;;;;15.00;10.93;;;;;;;;;;5055946;28;20095;-63
2022/03/04 11:36:25;;;;;;;17.10;11.48;;;;;;;;;;5055688;28;20549;-63
2022/03/04 11:38:53;;;;;;;20.85;11.43;;;;;;;;;;5056243;28;20037;-73
2022/03/04 11:41:19;;;;;;;15.65;10.65;;;;;;;;;;5055762;28;20034;-62
2022/03/04 11:43:45;;;;;;;17.92;10.57;;;;;;;;;;5056099;28;20163;-63
2022/03/04 11:46:18;;;;;;;15.88;10.10;;;;;;;;;;5056341;28;20036;-75
2022/03/04 11:48:44;;;;;;;13.45;9.77;;;;;;;;;;5056153;28;20033;-63
2022/03/04 11:51:22;;;;;;;17.25;9.85;;;;;;;;;;5055930;28;20025;-67
2022/03/04 11:54:09;;;;;;;18.13;10.80;;;;;;;;;;5055167;28;20037;-63
2022/03/04 11:56:54;;;;;;;19.33;11.45;;;;;;;;;;5051603;28;20542;-63
2022/03/04 11:59:20;;;;;;;22.33;11.93;;;;;;;;;;5052816;28;20037;-63
2022/03/04 12:01:46;;;;;;;23.23;11.68;;;;;;;;;;5052781;28;20060;-64
2022/03/04 12:04:14;;;;;;;25.85;11.15;;;;;;;;;;5054610;28;20385;-63
2022/03/04 12:06:41;;;;;;;16.13;11.38;;;;;;;;;;5055700;28;20441;-63
2022/03/04 12:09:29;;;;;;;21.48;11.80;;;;;;;;;;5055909;28;20025;-62
2022/03/04 12:12:13;;;;;;;16.88;11.32;;;;;;;;;;5055503;28;20025;-63
2022/03/04 12:14:49;;;;;;;16.30;11.20;;;;;;;;;;5055242;28;20075;-63
2022/03/04 12:17:15;;;;;;;16.05;11.18;;;;;;;;;;5053922;28;20116;-63
2022/03/04 12:19:42;;;;;;;18.38;11.80;;;;;;;;;;5054753;28;20029;-63
2022/03/04 12:22:08;;;;;;;18.08;11.88;;;;;;;;;;5054858;28;20076;-73
2022/03/04 12:24:36;;;;;;;23.83;11.00;;;;;;;;;;5051220;28;20083;-62
2022/03/04 12:27:03;;;;;;;16.70;10.90;;;;;;;;;;5051494;28;20052;-62
2022/03/04 12:29:42;;;;;;;16.60;10.15;;;;;;;;;;5053131;28;20485;-63
2022/03/04 12:32:08;;;;;;;13.35;10.15;;;;;;;;;;5054688;28;20505;-70
2022/03/04 12:34:37;;;;;;;16.42;10.55;;;;;;;;;;5054984;28;20033;-63
2022/03/04 12:37:08;;;;;;;16.80;9.88;;;;;;;;;;5054874;28;20037;-62
2022/03/04 12:39:38;;;;;;;22.55;10.50;;;;;;;;;;5054686;28;20444;-69
2022/03/04 12:42:06;;;;;;;14.82;10.45;;;;;;;;;;5054472;28;20132;-63
2022/03/04 12:44:33;;;;;;;15.38;10.27;;;;;;;;;;5055290;28;20047;-75
2022/03/04 12:46:59;;;;;;;15.65;10.40;;;;;;;;;;5054532;28;20117;-63
2022/03/04 12:49:29;;;;;;;22.85;10.30;;;;;;;;;;5054556;28;20473;-63
2022/03/04 12:51:55;;;;;;;15.68;9.70;;;;;;;;;;5054797;28;20025;-75
2022/03/04 12:54:25;;;;;;;14.10;9.27;;;;;;;;;;5054677;28;20037;-69
2022/03/04 12:56:55;;;;;;;14.25;10.05;;;;;;;;;;5054976;28;20033;-63
2022/03/04 12:59:22;;;;;;;14.70;9.25;;;;;;;;;;5054262;28;20045;-70
2022/03/04 13:01:52;;;;;;;14.88;9.63;;;;;;;;;;5054167;28;20067;-73
2022/03/04 13:04:18;;;;;;;17.33;9.38;;;;;;;;;;5054419;28;20064;-74
2022/03/04 13:06:45;;;;;;;13.75;9.77;;;;;;;;;;5054319;28;20124;-75
2022/03/04 13:09:11;;;;;;;13.57;9.20;;;;;;;;;;5054254;28;20037;-62
2022/03/04 13:11:39;;;;;;;12.80;9.27;;;;;;;;;;5054348;28;20029;-63
2022/03/04 13:14:05;;;;;;;13.60;9.75;;;;;;;;;;5053976;28;20493;-63
2022/03/04 13:16:40;;;;;;;12.40;9.15;;;;;;;;;;5053704;28;20041;-63
2022/03/04 13:19:08;;;;;;;11.88;8.60;;;;;;;;;;5054139;28;20033;-74
2022/03/04 13:21:44;;;;;;;13.50;8.95;;;;;;;;;;5053728;28;20029;-63
2022/03/04 13:24:15;;;;;;;17.98;9.70;;;;;;;;;;5049112;28;20033;-63
2022/03/04 13:26:49;;;;;;;13.68;9.30;;;;;;;;;;5051014;28;20736;-74
2022/03/04 13:29:15;;;;;;;17.10;9.52;;;;;;;;;;5053145;28;20061;-63
2022/03/04 13:31:41;;;;;;;13.52;9.73;;;;;;;;;;5053498;28;20662;-62
2022/03/04 13:34:09;;;;;;;15.98;10.10;;;;;;;;;;5052555;28;20432;-62
2022/03/04 13:36:39;;;;;;;15.75;9.75;;;;;;;;;;5053867;28;20076;-62
2022/03/04 13:39:07;;;;;;;14.70;9.90;;;;;;;;;;5053610;28;20036;-74
2022/03/04 13:41:34;;;;;;;14.73;9.15;;;;;;;;;;5053583;28;20037;-67
2022/03/04 13:44:10;;;;;;;15.88;9.57;;;;;;;;;;5052686;28;20048;-62
2022/03/04 13:46:37;;;;;;;14.98;9.55;;;;;;;;;;5053551;28;20118;-62
2022/03/04 13:49:05;;;;;;;13.82;9.40;;;;;;;;;;5053807;28;20045;-62
2022/03/04 13:51:32;;;;;;;14.75;9.90;;;;;;;;;;5053900;28;20052;-62
2022/03/04 13:53:59;;;;;;;15.48;9.98;;;;;;;;;;5053827;28;20039;-63
2022/03/04 13:56:25;;;;;;;16.88;9.65;;;;;;;;;;5053126;28;20067;-62
2022/03/04 13:58:59;;;;;;;21.23;11.40;;;;;;;;;;5053295;28;20074;-67
2022/03/04 14:01:27;;;;;;;14.55;10.05;;;;;;;;;;5053274;28;20084;-65
2022/03/04 14:03:53;;;;;;;15.98;9.85;;;;;;;;;;5052861;28;20025;-62
2022/03/04 14:06:24;;;;;;;13.35;10.20;;;;;;;;;;5051839;28;20033;-62
2022/03/04 14:08:50;;;;;;;14.90;10.00;;;;;;;;;;5053006;28;20040;-62
2022/03/04 14:11:16;;;;;;;20.00;10.82;;;;;;;;;;5053415;28;20037;-62
2022/03/04 14:13:42;;;;;;;24.73;10.90;;;;;;;;;;5052876;28;20138;-63
2022/03/04 14:16:11;;;;;;;20.92;9.90;;;;;;;;;;5053494;28;20061;-71
2022/03/04 14:18:37;;;;;;;15.35;10.70;;;;;;;;;;5053002;28;20029;-62